Accueil
METAR-TAF:

METAR-TAF

Aéroports :

Aéroport international de Vladivostok

Vladivostok, Russie

latitude: 43-07N, longitude: 131-56E, altitude: 184 m

Observation

Le bulletin a été fait il y a 18 minutes, à 04:00 UTC
Vent 8 kt de nord/nord-ouest
Température 16°C
Humidité 20%
Pression 1022 hPa
Visibilité 10 km ou plus

METAR: UHWW 190400Z 33004MPS 9999 NSC 16/M07 Q1022 R25L/0///70 NOSIG RMK QFE765

Heure: 14:18 (04:18 UTC)

Prévision

Le bulletin a été fait il y a 2 heures et 18 minutes, à 02:00 UTC
Prévision valable du 19 à 03 UTC au 20 à 03 UTC
Vent 6 kt de nord-ouest
Visibilité 10 km ou plus
Nuages épars à une hauteur de 3000 ft
Evoluant progressivement
du 19 à 10 UTC au 19 à 12 UTC
Vent 2 kt de direction variable
Nuages épars à une hauteur de 2000 ft
Evoluant progressivement
du 19 à 13 UTC au 19 à 15 UTC
Visibilité: 5000 m
brume

TAF: UHWW 190200Z 1903/2003 32003MPS 9999 SCT030 BECMG 1910/1912 VRB01MPS SCT020 BECMG 1913/1915 5000 BR

Observations et prévisions météorologiques de plus de 4000 aéroports (messages METAR et TAF).

Les stations disponibles sont représentées par des disques jaunes et rouges sur la carte.

Passer la souris dessus pour voir le nom de la station.

Cliquer dessus pour voir les observations et prévisions météorologiques.

Pour changer de carte: cliquez sur les boutons verts avec une croix noire pour zoomer, sur le bouton vert avec un tiret pour effectuer un zoom arrière, ou sur les flèches vertes pour les cartes adjacentes.


METAR-TAF: